Standort: A- 4920 Schildorn, St. Kollmann 6
Position: Ost 1327'49" Nord 4807'14" 563 m Seehhe
Werte der letzten 24 Stunden
Wetterdaten: aktuell Mittwoch, 23.06.2021 01:25
Datum Zeit Temp. A. Feuchte A. Luftdruck Regen Richtung Richtung Sonnenschein UV Solar Windben
23.06.2021 01:25 17,8 C 85 % 1011,9 hPa 0,7 l/m N 360 0 min 0,0 UV-I 0 W/m 8,0 km/h
23.06.2021 00:25 18,1 C 85 % 1011,8 hPa 11,5 l/m N 360 0 min 0,0 UV-I 0 W/m 4,8 km/h
22.06.2021 23:24 18,7 C 85 % 1011,4 hPa 0,2 l/m N 360 0 min 0,0 UV-I 0 W/m 9,7 km/h
22.06.2021 22:24 18,3 C 85 % 1010,8 hPa 0,0 l/m N 360 0 min 0,0 UV-I 0 W/m 3,2 km/h
22.06.2021 21:24 18,6 C 85 % 1010,2 hPa 0,0 l/m N 360 7 min 0,0 UV-I 0 W/m 9,7 km/h
22.06.2021 20:24 19,4 C 84 % 1008,9 hPa 2,5 l/m N 360 4 min 0,0 UV-I 76 W/m 4,8 km/h
22.06.2021 19:24 23,6 C 70 % 1008,3 hPa 0,0 l/m N 360 0 min 0,0 UV-I 7 W/m 12,9 km/h
22.06.2021 18:24 25,3 C 64 % 1007,4 hPa 0,0 l/m N 360 12 min 0,0 UV-I 225 W/m 8,0 km/h
22.06.2021 17:24 25,3 C 62 % 1007,4 hPa 0,0 l/m N 360 55 min 0,0 UV-I 95 W/m 9,7 km/h
22.06.2021 16:24 25,9 C 61 % 1006,9 hPa 0,0 l/m N 360 60 min 1,7 UV-I 633 W/m 12,9 km/h
22.06.2021 15:24 25,6 C 61 % 1006,9 hPa 0,0 l/m N 360 60 min 4,3 UV-I 668 W/m 16,1 km/h
22.06.2021 14:24 24,3 C 66 % 1007,1 hPa 0,0 l/m N-NO 12 57 min 6,2 UV-I 839 W/m 20,9 km/h
22.06.2021 13:24 23,2 C 72 % 1007,4 hPa 0,0 l/m N 360 60 min 6,1 UV-I 892 W/m 16,1 km/h
22.06.2021 12:24 22,9 C 72 % 1007,7 hPa 0,0 l/m N 360 57 min 6,9 UV-I 839 W/m 9,7 km/h
22.06.2021 11:24 21,9 C 75 % 1007,8 hPa 0,0 l/m N 360 52 min 5,6 UV-I 845 W/m 8,0 km/h
22.06.2021 10:24 20,6 C 78 % 1007,9 hPa 0,0 l/m N 5 46 min 4,3 UV-I 859 W/m 9,7 km/h
22.06.2021 09:24 19,7 C 78 % 1008,2 hPa 0,0 l/m N 360 58 min 2,3 UV-I 665 W/m 6,4 km/h
22.06.2021 08:24 18,9 C 82 % 1008,2 hPa 0,0 l/m N 360 60 min 0,6 UV-I 448 W/m 9,7 km/h
22.06.2021 07:24 17,5 C 84 % 1008,0 hPa 0,0 l/m N 9 60 min 0,0 UV-I 286 W/m 8,0 km/h
22.06.2021 06:24 16,3 C 85 % 1007,7 hPa 0,0 l/m N 5 15 min 0,0 UV-I 110 W/m 3,2 km/h
22.06.2021 05:24 16,0 C 85 % 1007,4 hPa 0,0 l/m N 360 0 min 0,0 UV-I 7 W/m 11,3 km/h
22.06.2021 04:24 16,4 C 85 % 1007,4 hPa 0,0 l/m N 360 0 min 0,0 UV-I 0 W/m 14,5 km/h
22.06.2021 03:24 16,9 C 85 % 1007,4 hPa 0,0 l/m N 360 0 min 0,0 UV-I 0 W/m 14,5 km/h
22.06.2021 02:24 17,3 C 85 % 1006,9 hPa 0,0 l/m N 360 0 min 0,0 UV-I 0 W/m 16,1 km/h
22.06.2021 02:00 17,7 C 85 % 1006,5 hPa 0,0 l/m N 360 0 min 0,0 UV-I 0 W/m 29,0 km/h
_ Min-Zeit 05:35 15:27 02:01 - - - - - - 20:34
Minimum _ 15,7 C 57 % 1006,4 hPa - - - - - - 0,0 km/h
_ Max-Zeit 16:20 03:53 00:54 23:41 - - 06:10 12:58 14:11 02:04
Maximum _ 26,1 C 86 % 1012,2 hPa 0,7 l/m - - 1 min 7,4 UV-I 954 W/m 30,6 km/h
N
Durchschnitt _ 20,1 C 78 % 1008,2 hPa #14,9 l/m N - #0 min. 0,0 UV-I 0 W/m 12,5 km/h
Daten ab 1. Mai 2002 - die Jahresstatistiken sind aber falsch (grere Aufzeichnungslcken)